Terminal Aerodrome Forecast
Issued by NWS

Home | Current Version | Previous Version | Text Only | Print | Product List | Glossary On
Versions: 1 2 3 4 5 6 7 8 9 10 11 12
000
FTUS45 KBYZ 232337
TAFLVM
TAF
KLVM 232337Z 2400/2424 25014KT P6SM SCT200
     FM240400 22014KT P6SM SCT200
     FM241600 24028G42KT P6SM SCT140 BKN200=

USA.gov is the U.S. government's official web portal to all federal, state and local government web resources and services.